PKE weather

Parkes Airport
Parkes, New South Wales, Australia

Public forecast

Using degrees Celsius for public forecast. Weather courtesy of forecast.io.

Closest aviation weather report (METAR) to Parkes Airport

Closest report is Dubbo City Regional Airport, 57.5 nm (106.5 km) NNE. Retrieved 2019/10/22 15:30 UTC (0 seconds ago):

YSDU 221530Z AUTO 04004KT 9999 // NCD 15/00 Q1021 RF000/0000

Closest aviation forecast (TAF) to Parkes Airport

Forecast is more than 6 hours old.

Closest forecast is Dubbo City Regional Airport, 57.5 nm (106.5 km) NNE. Retrieved 2019/10/22 06:36 UTC (9 hours ago):

TAF YSDU 220453Z 2206/2224 17008KT CAVOK FM221000 09008KT CAVOK FM222300 36012KT CAVOK